sensor_id;sensor_type;location;lat;lon;timestamp;temperature;humidity
18139;DHT22;9195;53.176;9.486;2022-12-19T00:00:46;0.10;99.90
18139;DHT22;9195;53.176;9.486;2022-12-19T00:03:12;0.10;99.90
18139;DHT22;9195;53.176;9.486;2022-12-19T00:05:39;0.10;99.90
18139;DHT22;9195;53.176;9.486;2022-12-19T00:08:06;0.20;99.90
18139;DHT22;9195;53.176;9.486;2022-12-19T00:10:37;0.10;99.90
18139;DHT22;9195;53.176;9.486;2022-12-19T00:13:03;0.20;99.90
18139;DHT22;9195;53.176;9.486;2022-12-19T00:15:28;0.20;99.90
18139;DHT22;9195;53.176;9.486;2022-12-19T00:17:54;0.20;99.90
18139;DHT22;9195;53.176;9.486;2022-12-19T00:20:19;0.20;99.90
18139;DHT22;9195;53.176;9.486;2022-12-19T00:22:45;0.20;99.90
18139;DHT22;9195;53.176;9.486;2022-12-19T00:25:11;0.20;99.90
18139;DHT22;9195;53.176;9.486;2022-12-19T00:27:36;0.20;99.90
18139;DHT22;9195;53.176;9.486;2022-12-19T00:30:02;0.20;99.90
18139;DHT22;9195;53.176;9.486;2022-12-19T00:32:28;0.20;99.90
18139;DHT22;9195;53.176;9.486;2022-12-19T00:34:53;0.20;99.90
18139;DHT22;9195;53.176;9.486;2022-12-19T00:37:19;0.30;99.90
18139;DHT22;9195;53.176;9.486;2022-12-19T00:39:44;0.30;99.90
18139;DHT22;9195;53.176;9.486;2022-12-19T00:42:10;0.40;99.90
18139;DHT22;9195;53.176;9.486;2022-12-19T00:44:35;0.40;99.90
18139;DHT22;9195;53.176;9.486;2022-12-19T00:47:01;0.50;99.90
18139;DHT22;9195;53.176;9.486;2022-12-19T00:49:27;0.50;99.90
18139;DHT22;9195;53.176;9.486;2022-12-19T00:51:52;0.40;99.90
18139;DHT22;9195;53.176;9.486;2022-12-19T00:54:20;0.50;99.90
18139;DHT22;9195;53.176;9.486;2022-12-19T00:56:45;0.50;99.90
18139;DHT22;9195;53.176;9.486;2022-12-19T00:59:11;0.60;99.90
18139;DHT22;9195;53.176;9.486;2022-12-19T01:01:39;0.60;99.90
18139;DHT22;9195;53.176;9.486;2022-12-19T01:04:06;0.70;99.90
18139;DHT22;9195;53.176;9.486;2022-12-19T01:06:32;0.70;99.90
18139;DHT22;9195;53.176;9.486;2022-12-19T01:08:58;0.70;99.90
18139;DHT22;9195;53.176;9.486;2022-12-19T01:11:24;0.70;99.90
18139;DHT22;9195;53.176;9.486;2022-12-19T01:14:08;0.80;99.90
18139;DHT22;9195;53.176;9.486;2022-12-19T01:16:34;0.70;99.90
18139;DHT22;9195;53.176;9.486;2022-12-19T01:18:59;0.80;99.90
18139;DHT22;9195;53.176;9.486;2022-12-19T01:21:25;0.80;99.90
18139;DHT22;9195;53.176;9.486;2022-12-19T01:23:51;0.80;99.90
18139;DHT22;9195;53.176;9.486;2022-12-19T01:26:17;0.70;99.90
18139;DHT22;9195;53.176;9.486;2022-12-19T01:28:42;0.80;99.90
18139;DHT22;9195;53.176;9.486;2022-12-19T01:31:08;0.80;99.90
18139;DHT22;9195;53.176;9.486;2022-12-19T01:33:34;0.80;99.90
18139;DHT22;9195;53.176;9.486;2022-12-19T01:35:59;0.80;99.90
18139;DHT22;9195;53.176;9.486;2022-12-19T01:38:33;0.70;99.90
18139;DHT22;9195;53.176;9.486;2022-12-19T01:40:59;0.70;99.90
18139;DHT22;9195;53.176;9.486;2022-12-19T01:43:27;0.70;99.90
18139;DHT22;9195;53.176;9.486;2022-12-19T01:45:56;0.70;99.90
18139;DHT22;9195;53.176;9.486;2022-12-19T01:48:35;0.70;99.90
18139;DHT22;9195;53.176;9.486;2022-12-19T01:51:12;0.70;99.90
18139;DHT22;9195;53.176;9.486;2022-12-19T01:53:44;0.70;99.90
18139;DHT22;9195;53.176;9.486;2022-12-19T01:56:11;0.70;99.90
18139;DHT22;9195;53.176;9.486;2022-12-19T01:58:39;0.70;99.90
18139;DHT22;9195;53.176;9.486;2022-12-19T02:01:06;0.60;99.90
18139;DHT22;9195;53.176;9.486;2022-12-19T02:03:33;0.60;99.90
18139;DHT22;9195;53.176;9.486;2022-12-19T02:06:01;0.60;99.90
18139;DHT22;9195;53.176;9.486;2022-12-19T02:08:28;0.60;99.90
18139;DHT22;9195;53.176;9.486;2022-12-19T02:10:54;0.70;99.90
18139;DHT22;9195;53.176;9.486;2022-12-19T02:13:21;0.70;99.90
18139;DHT22;9195;53.176;9.486;2022-12-19T02:18:53;0.70;99.90
18139;DHT22;9195;53.176;9.486;2022-12-19T02:27:23;0.80;99.90
18139;DHT22;9195;53.176;9.486;2022-12-19T02:37:30;0.80;99.90
18139;DHT22;9195;53.176;9.486;2022-12-19T02:40:11;0.90;99.90
18139;DHT22;9195;53.176;9.486;2022-12-19T02:42:42;0.90;99.90
18139;DHT22;9195;53.176;9.486;2022-12-19T02:45:12;0.80;99.90
18139;DHT22;9195;53.176;9.486;2022-12-19T02:47:38;0.80;99.90
18139;DHT22;9195;53.176;9.486;2022-12-19T02:50:06;0.80;99.90
18139;DHT22;9195;53.176;9.486;2022-12-19T02:55:03;0.90;99.90
18139;DHT22;9195;53.176;9.486;2022-12-19T03:00:24;1.00;99.90
18139;DHT22;9195;53.176;9.486;2022-12-19T03:02:54;1.00;99.90
18139;DHT22;9195;53.176;9.486;2022-12-19T03:08:22;1.10;99.90
18139;DHT22;9195;53.176;9.486;2022-12-19T03:10:59;1.10;99.90
18139;DHT22;9195;53.176;9.486;2022-12-19T03:13:45;1.10;99.90
18139;DHT22;9195;53.176;9.486;2022-12-19T03:16:13;1.10;99.90
18139;DHT22;9195;53.176;9.486;2022-12-19T03:18:39;1.10;99.90
18139;DHT22;9195;53.176;9.486;2022-12-19T03:21:26;1.10;99.90
18139;DHT22;9195;53.176;9.486;2022-12-19T03:23:54;1.10;99.90
18139;DHT22;9195;53.176;9.486;2022-12-19T03:26:24;1.10;99.90
18139;DHT22;9195;53.176;9.486;2022-12-19T03:29:11;1.20;99.90
18139;DHT22;9195;53.176;9.486;2022-12-19T03:31:39;1.20;99.90
18139;DHT22;9195;53.176;9.486;2022-12-19T03:34:12;1.20;99.90
18139;DHT22;9195;53.176;9.486;2022-12-19T03:36:44;1.20;99.90
18139;DHT22;9195;53.176;9.486;2022-12-19T03:39:12;1.20;99.90
18139;DHT22;9195;53.176;9.486;2022-12-19T03:41:40;1.30;99.90
18139;DHT22;9195;53.176;9.486;2022-12-19T03:44:31;1.30;99.90
18139;DHT22;9195;53.176;9.486;2022-12-19T03:47:05;1.30;99.90
18139;DHT22;9195;53.176;9.486;2022-12-19T03:49:33;1.30;99.90
18139;DHT22;9195;53.176;9.486;2022-12-19T03:52:00;1.30;99.90
18139;DHT22;9195;53.176;9.486;2022-12-19T03:54:33;1.30;99.90
18139;DHT22;9195;53.176;9.486;2022-12-19T03:57:13;1.50;99.90
18139;DHT22;9195;53.176;9.486;2022-12-19T04:00:17;1.40;99.90
18139;DHT22;9195;53.176;9.486;2022-12-19T04:02:37;1.40;99.90
18139;DHT22;9195;53.176;9.486;2022-12-19T04:05:06;1.50;99.90
18139;DHT22;9195;53.176;9.486;2022-12-19T04:07:35;1.50;99.90
18139;DHT22;9195;53.176;9.486;2022-12-19T04:10:05;1.60;99.90
18139;DHT22;9195;53.176;9.486;2022-12-19T04:12:35;1.60;99.90
18139;DHT22;9195;53.176;9.486;2022-12-19T04:15:03;1.60;99.90
18139;DHT22;9195;53.176;9.486;2022-12-19T04:17:52;1.60;99.90
18139;DHT22;9195;53.176;9.486;2022-12-19T04:20:25;1.60;99.90
18139;DHT22;9195;53.176;9.486;2022-12-19T04:23:37;1.70;99.90
18139;DHT22;9195;53.176;9.486;2022-12-19T04:26:00;1.70;99.90
18139;DHT22;9195;53.176;9.486;2022-12-19T04:28:33;1.70;99.90
18139;DHT22;9195;53.176;9.486;2022-12-19T04:31:03;1.80;99.90
18139;DHT22;9195;53.176;9.486;2022-12-19T04:33:29;1.80;99.90
18139;DHT22;9195;53.176;9.486;2022-12-19T04:35:55;1.80;99.90
18139;DHT22;9195;53.176;9.486;2022-12-19T04:38:21;1.90;99.90
18139;DHT22;9195;53.176;9.486;2022-12-19T04:40:47;1.80;99.90
18139;DHT22;9195;53.176;9.486;2022-12-19T04:43:12;1.90;99.90
18139;DHT22;9195;53.176;9.486;2022-12-19T04:45:39;1.80;99.90
18139;DHT22;9195;53.176;9.486;2022-12-19T04:48:06;1.80;99.90
18139;DHT22;9195;53.176;9.486;2022-12-19T04:50:33;1.80;99.90
18139;DHT22;9195;53.176;9.486;2022-12-19T04:52:59;1.80;99.90
18139;DHT22;9195;53.176;9.486;2022-12-19T04:55:24;1.90;99.90
18139;DHT22;9195;53.176;9.486;2022-12-19T04:57:50;1.90;99.90
18139;DHT22;9195;53.176;9.486;2022-12-19T05:00:16;1.90;99.90
18139;DHT22;9195;53.176;9.486;2022-12-19T05:02:41;1.90;99.90
18139;DHT22;9195;53.176;9.486;2022-12-19T05:05:07;2.00;99.90
18139;DHT22;9195;53.176;9.486;2022-12-19T05:07:33;1.90;99.90
18139;DHT22;9195;53.176;9.486;2022-12-19T05:09:59;2.00;99.90
18139;DHT22;9195;53.176;9.486;2022-12-19T05:12:24;2.00;99.90
18139;DHT22;9195;53.176;9.486;2022-12-19T05:14:50;2.00;99.90
18139;DHT22;9195;53.176;9.486;2022-12-19T05:17:16;2.00;99.90
18139;DHT22;9195;53.176;9.486;2022-12-19T05:19:41;2.00;99.90
18139;DHT22;9195;53.176;9.486;2022-12-19T05:22:07;2.10;99.90
18139;DHT22;9195;53.176;9.486;2022-12-19T05:24:33;2.10;99.90
18139;DHT22;9195;53.176;9.486;2022-12-19T05:26:59;2.10;99.90
18139;DHT22;9195;53.176;9.486;2022-12-19T05:29:24;2.10;99.90
18139;DHT22;9195;53.176;9.486;2022-12-19T05:31:50;2.10;99.90
18139;DHT22;9195;53.176;9.486;2022-12-19T05:34:15;2.10;99.90
18139;DHT22;9195;53.176;9.486;2022-12-19T05:36:41;2.20;99.90
18139;DHT22;9195;53.176;9.486;2022-12-19T05:39:07;2.20;99.90
18139;DHT22;9195;53.176;9.486;2022-12-19T05:41:32;2.30;99.90
18139;DHT22;9195;53.176;9.486;2022-12-19T05:43:58;2.30;99.90
18139;DHT22;9195;53.176;9.486;2022-12-19T05:46:24;2.30;99.90
18139;DHT22;9195;53.176;9.486;2022-12-19T05:48:50;2.40;99.90
18139;DHT22;9195;53.176;9.486;2022-12-19T05:51:16;2.40;99.90
18139;DHT22;9195;53.176;9.486;2022-12-19T05:53:42;2.40;99.90
18139;DHT22;9195;53.176;9.486;2022-12-19T05:56:10;2.50;99.90
18139;DHT22;9195;53.176;9.486;2022-12-19T05:58:38;2.40;99.90
18139;DHT22;9195;53.176;9.486;2022-12-19T06:01:09;2.40;99.90
18139;DHT22;9195;53.176;9.486;2022-12-19T06:03:35;2.40;99.90
18139;DHT22;9195;53.176;9.486;2022-12-19T06:06:02;2.50;99.90
18139;DHT22;9195;53.176;9.486;2022-12-19T06:08:28;2.50;99.90
18139;DHT22;9195;53.176;9.486;2022-12-19T06:10:54;2.50;99.90
18139;DHT22;9195;53.176;9.486;2022-12-19T06:13:19;2.50;99.90
18139;DHT22;9195;53.176;9.486;2022-12-19T06:15:45;2.60;99.90
18139;DHT22;9195;53.176;9.486;2022-12-19T06:18:11;2.50;99.90
18139;DHT22;9195;53.176;9.486;2022-12-19T06:20:36;2.50;99.90
18139;DHT22;9195;53.176;9.486;2022-12-19T06:23:02;2.60;99.90
18139;DHT22;9195;53.176;9.486;2022-12-19T06:25:27;2.50;99.90
18139;DHT22;9195;53.176;9.486;2022-12-19T06:27:53;2.60;99.90
18139;DHT22;9195;53.176;9.486;2022-12-19T06:30:19;2.60;99.90
18139;DHT22;9195;53.176;9.486;2022-12-19T06:32:44;2.60;99.90
18139;DHT22;9195;53.176;9.486;2022-12-19T06:35:10;2.60;99.90
18139;DHT22;9195;53.176;9.486;2022-12-19T06:37:35;2.60;99.90
18139;DHT22;9195;53.176;9.486;2022-12-19T06:40:01;2.60;99.90
18139;DHT22;9195;53.176;9.486;2022-12-19T06:42:27;2.60;99.90
18139;DHT22;9195;53.176;9.486;2022-12-19T06:44:54;2.60;99.90
18139;DHT22;9195;53.176;9.486;2022-12-19T06:47:21;2.60;99.90
18139;DHT22;9195;53.176;9.486;2022-12-19T06:49:47;2.70;99.90
18139;DHT22;9195;53.176;9.486;2022-12-19T06:52:14;2.70;99.90
18139;DHT22;9195;53.176;9.486;2022-12-19T06:54:39;2.70;99.90
18139;DHT22;9195;53.176;9.486;2022-12-19T06:57:06;2.70;99.90
18139;DHT22;9195;53.176;9.486;2022-12-19T06:59:32;2.70;99.90
18139;DHT22;9195;53.176;9.486;2022-12-19T07:02:21;2.70;99.90
18139;DHT22;9195;53.176;9.486;2022-12-19T07:04:53;2.80;99.90
18139;DHT22;9195;53.176;9.486;2022-12-19T07:07:20;2.70;99.90
18139;DHT22;9195;53.176;9.486;2022-12-19T07:09:47;2.70;99.90
18139;DHT22;9195;53.176;9.486;2022-12-19T07:12:13;2.70;99.90
18139;DHT22;9195;53.176;9.486;2022-12-19T07:14:38;2.70;99.90
18139;DHT22;9195;53.176;9.486;2022-12-19T07:17:04;2.60;99.90
18139;DHT22;9195;53.176;9.486;2022-12-19T07:19:31;2.60;99.90
18139;DHT22;9195;53.176;9.486;2022-12-19T07:21:58;2.70;99.90
18139;DHT22;9195;53.176;9.486;2022-12-19T07:24:24;2.70;99.90
18139;DHT22;9195;53.176;9.486;2022-12-19T07:26:50;2.70;99.90
18139;DHT22;9195;53.176;9.486;2022-12-19T07:29:15;2.70;99.90
18139;DHT22;9195;53.176;9.486;2022-12-19T07:31:41;2.60;99.90
18139;DHT22;9195;53.176;9.486;2022-12-19T07:34:06;2.60;99.90
18139;DHT22;9195;53.176;9.486;2022-12-19T07:36:32;2.60;99.90
18139;DHT22;9195;53.176;9.486;2022-12-19T07:38:58;2.70;99.90
18139;DHT22;9195;53.176;9.486;2022-12-19T07:41:23;2.60;99.90
18139;DHT22;9195;53.176;9.486;2022-12-19T07:43:49;2.60;99.90
18139;DHT22;9195;53.176;9.486;2022-12-19T07:46:14;2.60;99.90
18139;DHT22;9195;53.176;9.486;2022-12-19T07:48:40;2.70;99.90
18139;DHT22;9195;53.176;9.486;2022-12-19T07:51:06;2.70;99.90
18139;DHT22;9195;53.176;9.486;2022-12-19T07:53:32;2.70;99.90
18139;DHT22;9195;53.176;9.486;2022-12-19T07:55:57;2.70;99.90
18139;DHT22;9195;53.176;9.486;2022-12-19T07:58:23;2.70;99.90
18139;DHT22;9195;53.176;9.486;2022-12-19T08:00:56;2.70;99.90
18139;DHT22;9195;53.176;9.486;2022-12-19T08:03:23;2.70;99.90
18139;DHT22;9195;53.176;9.486;2022-12-19T08:05:49;2.70;99.90
18139;DHT22;9195;53.176;9.486;2022-12-19T08:08:14;2.80;99.90
18139;DHT22;9195;53.176;9.486;2022-12-19T08:10:40;2.80;99.90
18139;DHT22;9195;53.176;9.486;2022-12-19T08:13:06;2.70;99.90
18139;DHT22;9195;53.176;9.486;2022-12-19T08:15:32;2.80;99.90
18139;DHT22;9195;53.176;9.486;2022-12-19T08:17:57;2.80;99.90
18139;DHT22;9195;53.176;9.486;2022-12-19T08:20:23;2.70;99.90
18139;DHT22;9195;53.176;9.486;2022-12-19T08:22:49;2.60;99.90
18139;DHT22;9195;53.176;9.486;2022-12-19T08:25:15;2.60;99.90
18139;DHT22;9195;53.176;9.486;2022-12-19T08:27:41;2.60;99.90
18139;DHT22;9195;53.176;9.486;2022-12-19T08:30:07;2.50;99.90
18139;DHT22;9195;53.176;9.486;2022-12-19T08:32:33;2.60;99.90
18139;DHT22;9195;53.176;9.486;2022-12-19T08:34:59;2.60;99.90
18139;DHT22;9195;53.176;9.486;2022-12-19T08:37:24;2.60;99.90
18139;DHT22;9195;53.176;9.486;2022-12-19T08:39:50;2.60;99.90
18139;DHT22;9195;53.176;9.486;2022-12-19T08:42:16;2.60;99.90
18139;DHT22;9195;53.176;9.486;2022-12-19T08:44:41;2.60;99.90
18139;DHT22;9195;53.176;9.486;2022-12-19T08:47:08;2.70;99.90
18139;DHT22;9195;53.176;9.486;2022-12-19T08:49:33;2.80;99.90
18139;DHT22;9195;53.176;9.486;2022-12-19T08:51:59;2.80;99.90
18139;DHT22;9195;53.176;9.486;2022-12-19T08:54:25;2.90;99.90
18139;DHT22;9195;53.176;9.486;2022-12-19T08:56:51;2.80;99.90
18139;DHT22;9195;53.176;9.486;2022-12-19T08:59:17;2.70;99.90
18139;DHT22;9195;53.176;9.486;2022-12-19T09:01:42;2.80;99.90
18139;DHT22;9195;53.176;9.486;2022-12-19T09:04:08;2.80;99.90
18139;DHT22;9195;53.176;9.486;2022-12-19T09:06:34;2.80;99.90
18139;DHT22;9195;53.176;9.486;2022-12-19T09:08:59;2.80;99.90
18139;DHT22;9195;53.176;9.486;2022-12-19T09:11:25;2.80;99.90
18139;DHT22;9195;53.176;9.486;2022-12-19T09:13:55;2.80;99.90
18139;DHT22;9195;53.176;9.486;2022-12-19T09:16:22;2.90;99.90
18139;DHT22;9195;53.176;9.486;2022-12-19T09:18:50;2.90;99.90
18139;DHT22;9195;53.176;9.486;2022-12-19T09:21:17;3.00;99.90
18139;DHT22;9195;53.176;9.486;2022-12-19T09:23:48;3.00;99.90
18139;DHT22;9195;53.176;9.486;2022-12-19T09:26:14;3.00;99.90
18139;DHT22;9195;53.176;9.486;2022-12-19T09:28:40;3.10;99.90
18139;DHT22;9195;53.176;9.486;2022-12-19T09:31:10;3.10;99.90
18139;DHT22;9195;53.176;9.486;2022-12-19T09:33:37;3.10;99.90
18139;DHT22;9195;53.176;9.486;2022-12-19T09:36:04;3.20;99.90
18139;DHT22;9195;53.176;9.486;2022-12-19T09:38:32;3.20;99.90
18139;DHT22;9195;53.176;9.486;2022-12-19T09:46:54;3.20;99.90
18139;DHT22;9195;53.176;9.486;2022-12-19T09:49:26;3.30;99.90
18139;DHT22;9195;53.176;9.486;2022-12-19T09:51:55;3.30;99.90
18139;DHT22;9195;53.176;9.486;2022-12-19T09:54:37;3.30;99.90
18139;DHT22;9195;53.176;9.486;2022-12-19T09:57:22;3.30;99.90
18139;DHT22;9195;53.176;9.486;2022-12-19T10:00:05;3.40;99.90
18139;DHT22;9195;53.176;9.486;2022-12-19T10:02:56;3.40;99.90
18139;DHT22;9195;53.176;9.486;2022-12-19T10:05:39;3.40;99.90
18139;DHT22;9195;53.176;9.486;2022-12-19T10:08:20;3.40;99.90
18139;DHT22;9195;53.176;9.486;2022-12-19T10:11:03;3.50;99.90
18139;DHT22;9195;53.176;9.486;2022-12-19T10:13:56;3.50;99.90
18139;DHT22;9195;53.176;9.486;2022-12-19T10:22:26;3.60;99.90
18139;DHT22;9195;53.176;9.486;2022-12-19T10:25:16;3.60;99.90
18139;DHT22;9195;53.176;9.486;2022-12-19T10:27:54;3.70;99.90
18139;DHT22;9195;53.176;9.486;2022-12-19T10:30:22;3.70;99.90
18139;DHT22;9195;53.176;9.486;2022-12-19T10:33:12;3.60;99.90
18139;DHT22;9195;53.176;9.486;2022-12-19T10:35:43;3.80;99.90
18139;DHT22;9195;53.176;9.486;2022-12-19T10:38:18;3.90;99.90
18139;DHT22;9195;53.176;9.486;2022-12-19T10:41:02;3.90;99.90
18139;DHT22;9195;53.176;9.486;2022-12-19T10:46:43;4.00;99.90
18139;DHT22;9195;53.176;9.486;2022-12-19T10:49:21;4.00;99.90
18139;DHT22;9195;53.176;9.486;2022-12-19T10:52:02;4.10;99.90
18139;DHT22;9195;53.176;9.486;2022-12-19T11:00:14;4.20;99.90
18139;DHT22;9195;53.176;9.486;2022-12-19T11:02:45;4.20;99.90
18139;DHT22;9195;53.176;9.486;2022-12-19T11:05:26;4.20;99.90
18139;DHT22;9195;53.176;9.486;2022-12-19T11:10:38;4.40;99.90
18139;DHT22;9195;53.176;9.486;2022-12-19T11:15:57;4.50;99.90
18139;DHT22;9195;53.176;9.486;2022-12-19T11:18:25;4.50;99.90
18139;DHT22;9195;53.176;9.486;2022-12-19T11:23:27;4.60;99.90
18139;DHT22;9195;53.176;9.486;2022-12-19T11:26:02;4.60;99.90
18139;DHT22;9195;53.176;9.486;2022-12-19T11:31:06;4.60;99.90
18139;DHT22;9195;53.176;9.486;2022-12-19T11:33:33;4.70;99.90
18139;DHT22;9195;53.176;9.486;2022-12-19T11:36:00;4.70;99.90
18139;DHT22;9195;53.176;9.486;2022-12-19T11:38:39;4.70;99.90
18139;DHT22;9195;53.176;9.486;2022-12-19T11:41:15;4.70;99.90
18139;DHT22;9195;53.176;9.486;2022-12-19T11:46:46;4.80;99.90
18139;DHT22;9195;53.176;9.486;2022-12-19T11:52:02;4.90;99.90
18139;DHT22;9195;53.176;9.486;2022-12-19T11:54:32;4.90;99.90
18139;DHT22;9195;53.176;9.486;2022-12-19T11:56:59;4.90;99.90
18139;DHT22;9195;53.176;9.486;2022-12-19T11:59:35;4.90;99.90
18139;DHT22;9195;53.176;9.486;2022-12-19T12:07:37;5.10;99.90
18139;DHT22;9195;53.176;9.486;2022-12-19T12:15:31;5.20;99.90
18139;DHT22;9195;53.176;9.486;2022-12-19T12:18:15;5.20;99.90
18139;DHT22;9195;53.176;9.486;2022-12-19T12:26:13;5.20;99.90
18139;DHT22;9195;53.176;9.486;2022-12-19T12:28:52;5.20;99.90
18139;DHT22;9195;53.176;9.486;2022-12-19T12:45:51;5.70;99.90
18139;DHT22;9195;53.176;9.486;2022-12-19T12:51:07;5.90;99.90
18139;DHT22;9195;53.176;9.486;2022-12-19T12:53:39;6.00;99.90
18139;DHT22;9195;53.176;9.486;2022-12-19T12:56:08;6.10;99.90
18139;DHT22;9195;53.176;9.486;2022-12-19T13:01:20;6.10;99.90
18139;DHT22;9195;53.176;9.486;2022-12-19T13:06:26;6.10;99.90
18139;DHT22;9195;53.176;9.486;2022-12-19T13:11:39;6.10;99.90
18139;DHT22;9195;53.176;9.486;2022-12-19T13:17:00;6.10;99.90
18139;DHT22;9195;53.176;9.486;2022-12-19T13:19:28;6.10;99.90
18139;DHT22;9195;53.176;9.486;2022-12-19T13:24:53;6.00;99.90
18139;DHT22;9195;53.176;9.486;2022-12-19T13:43:20;6.00;99.90
18139;DHT22;9195;53.176;9.486;2022-12-19T13:46:31;6.10;99.90
18139;DHT22;9195;53.176;9.486;2022-12-19T13:51:48;6.10;99.90
18139;DHT22;9195;53.176;9.486;2022-12-19T13:56:44;6.20;99.90
18139;DHT22;9195;53.176;9.486;2022-12-19T13:59:10;6.10;99.90
18139;DHT22;9195;53.176;9.486;2022-12-19T14:01:39;6.10;99.90
18139;DHT22;9195;53.176;9.486;2022-12-19T14:04:25;6.10;99.90
18139;DHT22;9195;53.176;9.486;2022-12-19T14:06:57;6.10;99.90
18139;DHT22;9195;53.176;9.486;2022-12-19T14:09:39;6.20;99.90
18139;DHT22;9195;53.176;9.486;2022-12-19T14:12:14;6.20;99.90
18139;DHT22;9195;53.176;9.486;2022-12-19T14:15:20;6.20;99.90
18139;DHT22;9195;53.176;9.486;2022-12-19T14:17:49;6.20;99.90
18139;DHT22;9195;53.176;9.486;2022-12-19T14:20:21;6.20;99.90
18139;DHT22;9195;53.176;9.486;2022-12-19T14:22:47;6.20;99.90
18139;DHT22;9195;53.176;9.486;2022-12-19T14:25:13;6.20;99.90
18139;DHT22;9195;53.176;9.486;2022-12-19T14:30:23;6.20;99.90
18139;DHT22;9195;53.176;9.486;2022-12-19T14:32:51;6.30;99.90
18139;DHT22;9195;53.176;9.486;2022-12-19T14:35:20;6.30;99.90
18139;DHT22;9195;53.176;9.486;2022-12-19T14:37:48;6.30;99.90
18139;DHT22;9195;53.176;9.486;2022-12-19T14:40:26;6.30;99.90
18139;DHT22;9195;53.176;9.486;2022-12-19T14:43:03;6.30;99.90
18139;DHT22;9195;53.176;9.486;2022-12-19T14:45:52;6.30;99.90
18139;DHT22;9195;53.176;9.486;2022-12-19T14:48:35;6.30;99.90
18139;DHT22;9195;53.176;9.486;2022-12-19T14:53:35;6.30;99.90
18139;DHT22;9195;53.176;9.486;2022-12-19T14:56:07;6.40;99.90
18139;DHT22;9195;53.176;9.486;2022-12-19T14:58:36;6.40;99.90
18139;DHT22;9195;53.176;9.486;2022-12-19T15:01:04;6.40;99.90
18139;DHT22;9195;53.176;9.486;2022-12-19T15:03:34;6.40;99.90
18139;DHT22;9195;53.176;9.486;2022-12-19T15:06:07;6.50;99.90
18139;DHT22;9195;53.176;9.486;2022-12-19T15:08:37;6.50;99.90
18139;DHT22;9195;53.176;9.486;2022-12-19T15:11:04;6.50;99.90
18139;DHT22;9195;53.176;9.486;2022-12-19T15:13:56;6.50;99.90
18139;DHT22;9195;53.176;9.486;2022-12-19T15:16:30;6.50;99.90
18139;DHT22;9195;53.176;9.486;2022-12-19T15:18:58;6.50;99.90
18139;DHT22;9195;53.176;9.486;2022-12-19T15:21:25;6.50;99.90
18139;DHT22;9195;53.176;9.486;2022-12-19T15:23:50;6.50;99.90
18139;DHT22;9195;53.176;9.486;2022-12-19T15:26:25;6.50;99.90
18139;DHT22;9195;53.176;9.486;2022-12-19T15:28:53;6.60;99.90
18139;DHT22;9195;53.176;9.486;2022-12-19T15:31:38;6.60;99.90
18139;DHT22;9195;53.176;9.486;2022-12-19T15:34:29;6.70;99.90
18139;DHT22;9195;53.176;9.486;2022-12-19T15:36:58;6.70;99.90
18139;DHT22;9195;53.176;9.486;2022-12-19T15:39:24;6.70;99.90
18139;DHT22;9195;53.176;9.486;2022-12-19T15:41:55;6.70;99.90
18139;DHT22;9195;53.176;9.486;2022-12-19T15:46:55;6.80;99.90
18139;DHT22;9195;53.176;9.486;2022-12-19T15:49:21;6.80;99.90
18139;DHT22;9195;53.176;9.486;2022-12-19T15:51:47;6.90;99.90
18139;DHT22;9195;53.176;9.486;2022-12-19T15:54:13;6.90;99.90
18139;DHT22;9195;53.176;9.486;2022-12-19T15:56:44;7.00;99.90
18139;DHT22;9195;53.176;9.486;2022-12-19T15:59:25;7.00;99.90
18139;DHT22;9195;53.176;9.486;2022-12-19T16:01:52;7.00;99.90
18139;DHT22;9195;53.176;9.486;2022-12-19T16:04:18;7.00;99.90
18139;DHT22;9195;53.176;9.486;2022-12-19T16:06:44;7.00;99.90
18139;DHT22;9195;53.176;9.486;2022-12-19T16:09:22;7.00;99.90
18139;DHT22;9195;53.176;9.486;2022-12-19T16:11:49;7.00;99.90
18139;DHT22;9195;53.176;9.486;2022-12-19T16:14:15;7.00;99.90
18139;DHT22;9195;53.176;9.486;2022-12-19T16:16:41;7.00;99.90
18139;DHT22;9195;53.176;9.486;2022-12-19T16:19:27;7.10;99.90
18139;DHT22;9195;53.176;9.486;2022-12-19T16:21:54;7.00;99.90
18139;DHT22;9195;53.176;9.486;2022-12-19T16:24:20;7.00;99.90
18139;DHT22;9195;53.176;9.486;2022-12-19T16:26:55;7.00;99.90
18139;DHT22;9195;53.176;9.486;2022-12-19T16:29:27;7.00;99.90
18139;DHT22;9195;53.176;9.486;2022-12-19T16:31:53;6.90;99.90
18139;DHT22;9195;53.176;9.486;2022-12-19T16:34:21;6.90;99.90
18139;DHT22;9195;53.176;9.486;2022-12-19T16:36:47;6.90;99.90
18139;DHT22;9195;53.176;9.486;2022-12-19T16:39:14;6.90;99.90
18139;DHT22;9195;53.176;9.486;2022-12-19T16:41:41;6.90;99.90
18139;DHT22;9195;53.176;9.486;2022-12-19T16:44:25;6.90;99.90
18139;DHT22;9195;53.176;9.486;2022-12-19T16:46:51;6.80;99.90
18139;DHT22;9195;53.176;9.486;2022-12-19T16:49:21;6.80;99.90
18139;DHT22;9195;53.176;9.486;2022-12-19T16:51:50;6.80;99.90
18139;DHT22;9195;53.176;9.486;2022-12-19T16:54:16;6.80;99.90
18139;DHT22;9195;53.176;9.486;2022-12-19T16:56:47;6.80;99.90
18139;DHT22;9195;53.176;9.486;2022-12-19T16:59:21;6.80;99.90
18139;DHT22;9195;53.176;9.486;2022-12-19T17:01:48;6.80;99.90
18139;DHT22;9195;53.176;9.486;2022-12-19T17:04:18;6.80;99.90
18139;DHT22;9195;53.176;9.486;2022-12-19T17:06:44;6.80;99.90
18139;DHT22;9195;53.176;9.486;2022-12-19T17:09:18;6.70;99.90
18139;DHT22;9195;53.176;9.486;2022-12-19T17:11:47;6.70;99.90
18139;DHT22;9195;53.176;9.486;2022-12-19T17:14:19;6.80;99.90
18139;DHT22;9195;53.176;9.486;2022-12-19T17:16:46;6.70;99.90
18139;DHT22;9195;53.176;9.486;2022-12-19T17:19:18;6.80;99.90
18139;DHT22;9195;53.176;9.486;2022-12-19T17:21:45;6.80;99.90
18139;DHT22;9195;53.176;9.486;2022-12-19T17:24:12;6.70;99.90
18139;DHT22;9195;53.176;9.486;2022-12-19T17:26:38;6.70;99.90
18139;DHT22;9195;53.176;9.486;2022-12-19T17:29:04;6.70;99.90
18139;DHT22;9195;53.176;9.486;2022-12-19T17:31:30;6.70;99.90
18139;DHT22;9195;53.176;9.486;2022-12-19T17:34:04;6.70;99.90
18139;DHT22;9195;53.176;9.486;2022-12-19T17:36:30;6.60;99.90
18139;DHT22;9195;53.176;9.486;2022-12-19T17:38:57;6.60;99.90
18139;DHT22;9195;53.176;9.486;2022-12-19T17:41:23;6.60;99.90
18139;DHT22;9195;53.176;9.486;2022-12-19T17:43:50;6.60;99.90
18139;DHT22;9195;53.176;9.486;2022-12-19T17:46:20;6.70;99.90
18139;DHT22;9195;53.176;9.486;2022-12-19T17:48:48;6.60;99.90
18139;DHT22;9195;53.176;9.486;2022-12-19T17:51:16;6.60;99.90
18139;DHT22;9195;53.176;9.486;2022-12-19T17:53:43;6.60;99.90
18139;DHT22;9195;53.176;9.486;2022-12-19T17:56:16;6.50;99.90
18139;DHT22;9195;53.176;9.486;2022-12-19T17:58:43;6.50;99.90
18139;DHT22;9195;53.176;9.486;2022-12-19T18:01:20;6.60;99.90
18139;DHT22;9195;53.176;9.486;2022-12-19T18:03:48;6.60;99.90
18139;DHT22;9195;53.176;9.486;2022-12-19T18:06:14;6.50;99.90
18139;DHT22;9195;53.176;9.486;2022-12-19T18:08:41;6.50;99.90
18139;DHT22;9195;53.176;9.486;2022-12-19T18:11:18;6.50;99.90
18139;DHT22;9195;53.176;9.486;2022-12-19T18:13:45;6.50;99.90
18139;DHT22;9195;53.176;9.486;2022-12-19T18:16:13;6.60;99.90
18139;DHT22;9195;53.176;9.486;2022-12-19T18:18:39;6.60;99.90
18139;DHT22;9195;53.176;9.486;2022-12-19T18:21:06;6.60;99.90
18139;DHT22;9195;53.176;9.486;2022-12-19T18:23:32;6.60;99.90
18139;DHT22;9195;53.176;9.486;2022-12-19T18:25:57;6.70;99.90
18139;DHT22;9195;53.176;9.486;2022-12-19T18:28:23;6.70;99.90
18139;DHT22;9195;53.176;9.486;2022-12-19T18:30:49;6.70;99.90
18139;DHT22;9195;53.176;9.486;2022-12-19T18:33:20;6.70;99.90
18139;DHT22;9195;53.176;9.486;2022-12-19T18:35:47;6.60;99.90